sensor_id;sensor_type;location;lat;lon;timestamp;pressure;altitude;pressure_sealevel;temperature;humidity
10518;BME280;5307;42.548;22.968;2024-02-28T00:00:44;94129.09;;;7.26;79.18
10518;BME280;5307;42.548;22.968;2024-02-28T00:03:11;94143.03;;;7.08;80.11
10518;BME280;5307;42.548;22.968;2024-02-28T00:05:38;94136.06;;;7.07;80.46
10518;BME280;5307;42.548;22.968;2024-02-28T00:08:05;94130.22;;;7.09;80.77
10518;BME280;5307;42.548;22.968;2024-02-28T00:10:32;94126.66;;;6.92;80.53
10518;BME280;5307;42.548;22.968;2024-02-28T00:12:59;94132.63;;;7.03;80.95
10518;BME280;5307;42.548;22.968;2024-02-28T00:15:26;94138.50;;;6.82;81.80
10518;BME280;5307;42.548;22.968;2024-02-28T00:17:54;94131.09;;;6.63;82.87
10518;BME280;5307;42.548;22.968;2024-02-28T00:20:21;94140.03;;;6.60;83.77
10518;BME280;5307;42.548;22.968;2024-02-28T00:22:46;94143.75;;;6.69;83.99
10518;BME280;5307;42.548;22.968;2024-02-28T00:25:13;94137.78;;;6.78;83.51
10518;BME280;5307;42.548;22.968;2024-02-28T00:27:41;94134.69;;;6.56;84.35
10518;BME280;5307;42.548;22.968;2024-02-28T00:30:08;94142.28;;;6.65;84.72
10518;BME280;5307;42.548;22.968;2024-02-28T00:32:35;94136.28;;;6.53;85.22
10518;BME280;5307;42.548;22.968;2024-02-28T00:35:04;94138.22;;;6.53;85.13
10518;BME280;5307;42.548;22.968;2024-02-28T00:37:31;94133.56;;;6.53;85.24
10518;BME280;5307;42.548;22.968;2024-02-28T00:39:58;94133.81;;;6.39;85.73
10518;BME280;5307;42.548;22.968;2024-02-28T00:42:25;94137.44;;;6.29;86.04
10518;BME280;5307;42.548;22.968;2024-02-28T00:44:52;94133.16;;;6.32;86.51
10518;BME280;5307;42.548;22.968;2024-02-28T00:47:19;94134.69;;;6.33;86.60
10518;BME280;5307;42.548;22.968;2024-02-28T00:49:46;94144.56;;;5.96;87.20
10518;BME280;5307;42.548;22.968;2024-02-28T00:52:14;94145.22;;;6.04;87.70
10518;BME280;5307;42.548;22.968;2024-02-28T00:54:40;94134.75;;;6.29;87.11
10518;BME280;5307;42.548;22.968;2024-02-28T00:57:07;94138.34;;;6.22;87.13
10518;BME280;5307;42.548;22.968;2024-02-28T00:59:34;94140.19;;;6.02;87.96
10518;BME280;5307;42.548;22.968;2024-02-28T01:02:00;94142.44;;;5.80;88.80
10518;BME280;5307;42.548;22.968;2024-02-28T01:04:28;94141.31;;;6.05;89.19
10518;BME280;5307;42.548;22.968;2024-02-28T01:06:55;94147.25;;;6.23;89.25
10518;BME280;5307;42.548;22.968;2024-02-28T01:09:23;94160.78;;;6.00;88.97
10518;BME280;5307;42.548;22.968;2024-02-28T01:11:50;94156.34;;;5.82;89.70
10518;BME280;5307;42.548;22.968;2024-02-28T01:14:16;94159.34;;;5.88;90.08
10518;BME280;5307;42.548;22.968;2024-02-28T01:16:42;94161.59;;;5.97;89.92
10518;BME280;5307;42.548;22.968;2024-02-28T01:19:09;94163.59;;;5.92;89.75
10518;BME280;5307;42.548;22.968;2024-02-28T01:21:36;94154.69;;;5.88;90.14
10518;BME280;5307;42.548;22.968;2024-02-28T01:24:03;94163.41;;;5.46;91.08
10518;BME280;5307;42.548;22.968;2024-02-28T01:26:31;94164.94;;;5.77;92.16
10518;BME280;5307;42.548;22.968;2024-02-28T01:28:58;94168.69;;;6.14;92.16
10518;BME280;5307;42.548;22.968;2024-02-28T01:31:24;94166.53;;;6.02;92.03
10518;BME280;5307;42.548;22.968;2024-02-28T01:33:51;94164.44;;;6.13;91.46
10518;BME280;5307;42.548;22.968;2024-02-28T01:36:18;94153.72;;;6.06;92.02
10518;BME280;5307;42.548;22.968;2024-02-28T01:38:44;94167.84;;;6.17;92.10
10518;BME280;5307;42.548;22.968;2024-02-28T01:41:11;94169.44;;;6.14;92.11
10518;BME280;5307;42.548;22.968;2024-02-28T01:43:40;94168.75;;;6.10;92.84
10518;BME280;5307;42.548;22.968;2024-02-28T01:46:20;94163.00;;;6.05;93.20
10518;BME280;5307;42.548;22.968;2024-02-28T01:48:48;94156.50;;;6.25;93.38
10518;BME280;5307;42.548;22.968;2024-02-28T01:51:16;94156.56;;;6.22;93.45
10518;BME280;5307;42.548;22.968;2024-02-28T01:53:43;94162.16;;;6.11;94.14
10518;BME280;5307;42.548;22.968;2024-02-28T01:56:11;94166.38;;;6.12;94.51
10518;BME280;5307;42.548;22.968;2024-02-28T01:58:40;94157.13;;;6.10;94.60
10518;BME280;5307;42.548;22.968;2024-02-28T02:01:07;94149.56;;;5.98;94.62
10518;BME280;5307;42.548;22.968;2024-02-28T02:03:35;94152.94;;;6.05;95.21
10518;BME280;5307;42.548;22.968;2024-02-28T02:06:02;94152.13;;;6.08;94.47
10518;BME280;5307;42.548;22.968;2024-02-28T02:08:31;94158.28;;;5.82;95.86
10518;BME280;5307;42.548;22.968;2024-02-28T02:10:59;94152.38;;;5.90;96.32
10518;BME280;5307;42.548;22.968;2024-02-28T02:13:26;94158.56;;;5.91;96.37
10518;BME280;5307;42.548;22.968;2024-02-28T02:15:54;94156.72;;;5.84;96.16
10518;BME280;5307;42.548;22.968;2024-02-28T02:18:21;94164.31;;;5.66;96.71
10518;BME280;5307;42.548;22.968;2024-02-28T02:20:50;94165.16;;;5.59;97.11
10518;BME280;5307;42.548;22.968;2024-02-28T02:23:21;94161.44;;;5.50;97.65
10518;BME280;5307;42.548;22.968;2024-02-28T02:25:48;94161.44;;;5.50;97.91
10518;BME280;5307;42.548;22.968;2024-02-28T02:28:15;94166.72;;;4.96;99.51
10518;BME280;5307;42.548;22.968;2024-02-28T02:30:42;94167.69;;;5.13;100.00
10518;BME280;5307;42.548;22.968;2024-02-28T02:33:09;94165.41;;;5.42;100.00
10518;BME280;5307;42.548;22.968;2024-02-28T02:35:36;94171.31;;;5.63;99.89
10518;BME280;5307;42.548;22.968;2024-02-28T02:38:03;94167.00;;;5.39;99.66
10518;BME280;5307;42.548;22.968;2024-02-28T02:40:31;94173.22;;;5.36;99.59
10518;BME280;5307;42.548;22.968;2024-02-28T02:42:58;94171.13;;;5.47;99.55
10518;BME280;5307;42.548;22.968;2024-02-28T02:45:24;94173.03;;;5.50;98.92
10518;BME280;5307;42.548;22.968;2024-02-28T02:47:51;94167.81;;;5.32;98.67
10518;BME280;5307;42.548;22.968;2024-02-28T02:50:18;94168.66;;;5.29;99.31
10518;BME280;5307;42.548;22.968;2024-02-28T02:52:44;94167.72;;;5.09;99.97
10518;BME280;5307;42.548;22.968;2024-02-28T02:55:11;94171.47;;;4.85;100.00
10518;BME280;5307;42.548;22.968;2024-02-28T02:57:40;94164.16;;;5.16;100.00
10518;BME280;5307;42.548;22.968;2024-02-28T03:00:09;94167.22;;;4.84;100.00
10518;BME280;5307;42.548;22.968;2024-02-28T03:02:35;94165.34;;;4.77;100.00
10518;BME280;5307;42.548;22.968;2024-02-28T03:05:04;94164.97;;;5.13;100.00
10518;BME280;5307;42.548;22.968;2024-02-28T03:07:32;94156.34;;;4.50;100.00
10518;BME280;5307;42.548;22.968;2024-02-28T03:09:59;94156.50;;;4.73;100.00
10518;BME280;5307;42.548;22.968;2024-02-28T03:12:26;94161.66;;;4.60;100.00
10518;BME280;5307;42.548;22.968;2024-02-28T03:14:54;94162.50;;;4.91;100.00
10518;BME280;5307;42.548;22.968;2024-02-28T03:17:20;94166.06;;;4.85;100.00
10518;BME280;5307;42.548;22.968;2024-02-28T03:19:47;94154.38;;;4.91;100.00
10518;BME280;5307;42.548;22.968;2024-02-28T03:22:14;94170.44;;;4.71;100.00
10518;BME280;5307;42.548;22.968;2024-02-28T03:24:41;94175.34;;;4.84;100.00
10518;BME280;5307;42.548;22.968;2024-02-28T03:27:07;94165.78;;;4.72;100.00
10518;BME280;5307;42.548;22.968;2024-02-28T03:29:35;94170.69;;;4.84;100.00
10518;BME280;5307;42.548;22.968;2024-02-28T03:32:04;94176.78;;;4.92;100.00
10518;BME280;5307;42.548;22.968;2024-02-28T03:34:31;94174.63;;;4.80;100.00
10518;BME280;5307;42.548;22.968;2024-02-28T03:36:58;94177.75;;;4.74;100.00
10518;BME280;5307;42.548;22.968;2024-02-28T03:39:24;94189.06;;;4.66;100.00
10518;BME280;5307;42.548;22.968;2024-02-28T03:41:51;94182.44;;;4.70;100.00
10518;BME280;5307;42.548;22.968;2024-02-28T03:44:18;94186.75;;;4.61;100.00
10518;BME280;5307;42.548;22.968;2024-02-28T03:46:44;94188.38;;;4.55;100.00
10518;BME280;5307;42.548;22.968;2024-02-28T03:49:12;94186.81;;;4.57;100.00
10518;BME280;5307;42.548;22.968;2024-02-28T03:51:39;94189.34;;;4.75;100.00
10518;BME280;5307;42.548;22.968;2024-02-28T03:54:07;94185.53;;;4.69;100.00
10518;BME280;5307;42.548;22.968;2024-02-28T03:56:34;94184.41;;;4.66;100.00
10518;BME280;5307;42.548;22.968;2024-02-28T03:59:02;94186.72;;;4.64;100.00
10518;BME280;5307;42.548;22.968;2024-02-28T04:01:29;94180.69;;;4.50;100.00
10518;BME280;5307;42.548;22.968;2024-02-28T04:03:56;94184.41;;;4.66;100.00
10518;BME280;5307;42.548;22.968;2024-02-28T04:06:24;94182.13;;;4.65;100.00
10518;BME280;5307;42.548;22.968;2024-02-28T04:08:51;94175.13;;;4.64;100.00
10518;BME280;5307;42.548;22.968;2024-02-28T04:11:18;94184.81;;;4.61;100.00
10518;BME280;5307;42.548;22.968;2024-02-28T04:13:45;94179.38;;;4.68;100.00
10518;BME280;5307;42.548;22.968;2024-02-28T04:16:12;94176.31;;;4.63;100.00
10518;BME280;5307;42.548;22.968;2024-02-28T04:18:39;94176.03;;;4.50;100.00
10518;BME280;5307;42.548;22.968;2024-02-28T04:21:06;94175.50;;;4.69;100.00
10518;BME280;5307;42.548;22.968;2024-02-28T04:23:34;94174.34;;;4.67;100.00
10518;BME280;5307;42.548;22.968;2024-02-28T04:26:01;94180.63;;;4.57;100.00
10518;BME280;5307;42.548;22.968;2024-02-28T04:28:29;94181.72;;;4.66;100.00
10518;BME280;5307;42.548;22.968;2024-02-28T04:30:55;94177.16;;;4.56;100.00
10518;BME280;5307;42.548;22.968;2024-02-28T04:33:22;94183.00;;;4.47;100.00
10518;BME280;5307;42.548;22.968;2024-02-28T04:35:49;94183.91;;;4.34;100.00
10518;BME280;5307;42.548;22.968;2024-02-28T04:38:16;94190.22;;;4.16;100.00
10518;BME280;5307;42.548;22.968;2024-02-28T04:40:44;94189.81;;;4.18;100.00
10518;BME280;5307;42.548;22.968;2024-02-28T04:43:11;94179.81;;;4.15;100.00
10518;BME280;5307;42.548;22.968;2024-02-28T04:45:37;94199.50;;;4.15;100.00
10518;BME280;5307;42.548;22.968;2024-02-28T04:48:05;94207.44;;;3.85;100.00
10518;BME280;5307;42.548;22.968;2024-02-28T04:50:32;94202.50;;;4.28;100.00
10518;BME280;5307;42.548;22.968;2024-02-28T04:52:59;94202.81;;;4.34;100.00
10518;BME280;5307;42.548;22.968;2024-02-28T04:55:26;94206.94;;;4.01;100.00
10518;BME280;5307;42.548;22.968;2024-02-28T04:57:54;94204.91;;;4.15;100.00
10518;BME280;5307;42.548;22.968;2024-02-28T05:00:20;94209.88;;;4.21;100.00
10518;BME280;5307;42.548;22.968;2024-02-28T05:02:59;94211.56;;;4.00;100.00
10518;BME280;5307;42.548;22.968;2024-02-28T05:05:27;94211.16;;;4.09;100.00
10518;BME280;5307;42.548;22.968;2024-02-28T05:07:54;94211.94;;;4.02;100.00
10518;BME280;5307;42.548;22.968;2024-02-28T05:10:21;94217.25;;;3.50;100.00
10518;BME280;5307;42.548;22.968;2024-02-28T05:12:57;94229.41;;;3.87;100.00
10518;BME280;5307;42.548;22.968;2024-02-28T05:15:24;94239.41;;;3.90;100.00
10518;BME280;5307;42.548;22.968;2024-02-28T05:17:51;94231.72;;;3.88;100.00
10518;BME280;5307;42.548;22.968;2024-02-28T05:20:19;94240.47;;;4.10;100.00
10518;BME280;5307;42.548;22.968;2024-02-28T05:22:45;94248.56;;;4.14;100.00
10518;BME280;5307;42.548;22.968;2024-02-28T05:25:12;94246.91;;;4.27;100.00
10518;BME280;5307;42.548;22.968;2024-02-28T05:30:33;94242.75;;;4.15;100.00
10518;BME280;5307;42.548;22.968;2024-02-28T05:32:59;94239.34;;;4.04;100.00
10518;BME280;5307;42.548;22.968;2024-02-28T05:44:52;94253.19;;;4.13;100.00
10518;BME280;5307;42.548;22.968;2024-02-28T05:47:20;94251.66;;;4.12;100.00
10518;BME280;5307;42.548;22.968;2024-02-28T05:49:46;94249.66;;;4.24;100.00
10518;BME280;5307;42.548;22.968;2024-02-28T05:52:19;94257.75;;;4.24;100.00
10518;BME280;5307;42.548;22.968;2024-02-28T05:54:46;94265.16;;;4.12;100.00
10518;BME280;5307;42.548;22.968;2024-02-28T05:57:13;94258.59;;;4.13;100.00
10518;BME280;5307;42.548;22.968;2024-02-28T05:59:40;94265.38;;;4.39;100.00
10518;BME280;5307;42.548;22.968;2024-02-28T06:02:07;94266.19;;;4.33;98.83
10518;BME280;5307;42.548;22.968;2024-02-28T06:04:35;94264.59;;;4.39;98.71
10518;BME280;5307;42.548;22.968;2024-02-28T06:07:03;94259.50;;;4.48;98.32
10518;BME280;5307;42.548;22.968;2024-02-28T06:09:38;94264.59;;;4.39;97.52
10518;BME280;5307;42.548;22.968;2024-02-28T06:12:05;94279.19;;;4.48;97.04
10518;BME280;5307;42.548;22.968;2024-02-28T06:14:56;94275.31;;;4.53;96.43
10518;BME280;5307;42.548;22.968;2024-02-28T06:17:23;94277.59;;;4.58;95.76
10518;BME280;5307;42.548;22.968;2024-02-28T06:19:51;94275.13;;;4.74;95.37
10518;BME280;5307;42.548;22.968;2024-02-28T06:22:18;94283.72;;;4.62;95.00
10518;BME280;5307;42.548;22.968;2024-02-28T06:24:44;94283.69;;;4.69;95.08
10518;BME280;5307;42.548;22.968;2024-02-28T06:27:11;94280.47;;;4.85;95.22
10518;BME280;5307;42.548;22.968;2024-02-28T06:29:40;94286.66;;;4.86;95.08
10518;BME280;5307;42.548;22.968;2024-02-28T06:32:07;94281.97;;;4.93;95.46
10518;BME280;5307;42.548;22.968;2024-02-28T06:34:34;94278.81;;;4.98;95.24
10518;BME280;5307;42.548;22.968;2024-02-28T06:37:02;94277.22;;;5.01;95.69
10518;BME280;5307;42.548;22.968;2024-02-28T06:39:29;94276.75;;;5.13;96.08
10518;BME280;5307;42.548;22.968;2024-02-28T06:41:55;94284.81;;;5.17;96.78
10518;BME280;5307;42.548;22.968;2024-02-28T06:44:22;94284.75;;;5.24;97.64
10518;BME280;5307;42.548;22.968;2024-02-28T06:46:49;94296.94;;;5.43;97.91
10518;BME280;5307;42.548;22.968;2024-02-28T06:49:15;94288.75;;;5.50;97.42
10518;BME280;5307;42.548;22.968;2024-02-28T06:51:43;94290.38;;;5.74;97.18
10518;BME280;5307;42.548;22.968;2024-02-28T06:54:11;94290.53;;;5.98;96.23
10518;BME280;5307;42.548;22.968;2024-02-28T06:56:38;94282.91;;;6.19;96.42
10518;BME280;5307;42.548;22.968;2024-02-28T06:59:05;94281.47;;;6.89;94.64
10518;BME280;5307;42.548;22.968;2024-02-28T07:01:32;94282.88;;;6.97;91.94
10518;BME280;5307;42.548;22.968;2024-02-28T07:03:59;94286.66;;;7.26;90.62
10518;BME280;5307;42.548;22.968;2024-02-28T07:06:26;94284.59;;;7.34;89.36
10518;BME280;5307;42.548;22.968;2024-02-28T07:08:52;94289.28;;;7.73;86.76
10518;BME280;5307;42.548;22.968;2024-02-28T07:11:20;94286.84;;;7.79;86.86
10518;BME280;5307;42.548;22.968;2024-02-28T07:13:47;94282.66;;;7.94;85.60
10518;BME280;5307;42.548;22.968;2024-02-28T07:16:14;94285.22;;;8.01;84.91
10518;BME280;5307;42.548;22.968;2024-02-28T07:18:41;94289.00;;;8.07;84.73
10518;BME280;5307;42.548;22.968;2024-02-28T07:21:07;94291.22;;;8.12;84.96
10518;BME280;5307;42.548;22.968;2024-02-28T07:23:34;94283.84;;;7.93;83.53
10518;BME280;5307;42.548;22.968;2024-02-28T07:26:01;94302.31;;;8.21;82.93
10518;BME280;5307;42.548;22.968;2024-02-28T07:28:31;94297.81;;;7.75;82.64
10518;BME280;5307;42.548;22.968;2024-02-28T07:30:57;94289.84;;;7.64;82.81
10518;BME280;5307;42.548;22.968;2024-02-28T07:33:24;94288.09;;;7.54;82.96
10518;BME280;5307;42.548;22.968;2024-02-28T07:35:52;94285.78;;;7.72;84.33
10518;BME280;5307;42.548;22.968;2024-02-28T07:38:19;94288.44;;;7.56;84.09
10518;BME280;5307;42.548;22.968;2024-02-28T07:40:47;94283.50;;;7.51;83.88
10518;BME280;5307;42.548;22.968;2024-02-28T07:43:14;94291.91;;;7.57;85.41
10518;BME280;5307;42.548;22.968;2024-02-28T07:45:42;94293.53;;;7.74;85.42
10518;BME280;5307;42.548;22.968;2024-02-28T07:48:09;94288.09;;;7.74;85.67
10518;BME280;5307;42.548;22.968;2024-02-28T07:50:35;94289.22;;;7.77;85.15
10518;BME280;5307;42.548;22.968;2024-02-28T07:53:02;94287.03;;;7.88;85.43
10518;BME280;5307;42.548;22.968;2024-02-28T07:55:29;94288.59;;;7.89;85.19
10518;BME280;5307;42.548;22.968;2024-02-28T07:57:56;94280.91;;;7.84;84.59
10518;BME280;5307;42.548;22.968;2024-02-28T08:00:23;94276.97;;;7.88;84.78
10518;BME280;5307;42.548;22.968;2024-02-28T08:02:52;94277.34;;;8.07;84.52
10518;BME280;5307;42.548;22.968;2024-02-28T08:05:18;94283.22;;;8.05;84.04
10518;BME280;5307;42.548;22.968;2024-02-28T08:07:45;94279.50;;;8.15;84.78
10518;BME280;5307;42.548;22.968;2024-02-28T08:10:12;94275.34;;;8.27;84.01
10518;BME280;5307;42.548;22.968;2024-02-28T08:12:39;94273.28;;;8.87;82.75
10518;BME280;5307;42.548;22.968;2024-02-28T08:15:06;94264.47;;;8.96;80.76
10518;BME280;5307;42.548;22.968;2024-02-28T08:17:33;94267.78;;;9.19;80.18
10518;BME280;5307;42.548;22.968;2024-02-28T08:20:02;94267.78;;;9.65;78.25
10518;BME280;5307;42.548;22.968;2024-02-28T08:22:30;94270.94;;;9.63;77.61
10518;BME280;5307;42.548;22.968;2024-02-28T08:24:59;94273.94;;;9.81;77.29
10518;BME280;5307;42.548;22.968;2024-02-28T08:27:25;94269.78;;;9.77;76.77
10518;BME280;5307;42.548;22.968;2024-02-28T08:29:52;94270.19;;;10.04;76.40
10518;BME280;5307;42.548;22.968;2024-02-28T08:32:19;94263.50;;;10.47;75.88
10518;BME280;5307;42.548;22.968;2024-02-28T08:34:46;94267.00;;;10.60;74.29
10518;BME280;5307;42.548;22.968;2024-02-28T08:37:14;94264.28;;;10.60;73.39
10518;BME280;5307;42.548;22.968;2024-02-28T08:39:42;94271.16;;;10.65;72.43
10518;BME280;5307;42.548;22.968;2024-02-28T08:42:09;94269.28;;;10.87;71.46
10518;BME280;5307;42.548;22.968;2024-02-28T08:44:36;94257.88;;;11.27;71.13
10518;BME280;5307;42.548;22.968;2024-02-28T08:47:03;94266.25;;;11.33;70.43
10518;BME280;5307;42.548;22.968;2024-02-28T08:49:30;94255.97;;;11.37;69.40
10518;BME280;5307;42.548;22.968;2024-02-28T08:51:57;94256.94;;;11.43;68.38
10518;BME280;5307;42.548;22.968;2024-02-28T08:54:26;94257.78;;;11.87;67.71
10518;BME280;5307;42.548;22.968;2024-02-28T08:56:53;94255.88;;;11.62;66.95
10518;BME280;5307;42.548;22.968;2024-02-28T08:59:19;94262.94;;;11.72;67.04
10518;BME280;5307;42.548;22.968;2024-02-28T09:01:47;94262.34;;;12.12;66.58
10518;BME280;5307;42.548;22.968;2024-02-28T09:04:14;94266.16;;;11.93;66.25
10518;BME280;5307;42.548;22.968;2024-02-28T09:06:41;94260.63;;;11.83;66.45
10518;BME280;5307;42.548;22.968;2024-02-28T09:09:08;94262.00;;;12.10;66.28
10518;BME280;5307;42.548;22.968;2024-02-28T09:11:36;94255.06;;;11.96;64.67
10518;BME280;5307;42.548;22.968;2024-02-28T09:14:03;94257.81;;;11.96;64.38
10518;BME280;5307;42.548;22.968;2024-02-28T09:16:30;94256.38;;;11.82;64.31
10518;BME280;5307;42.548;22.968;2024-02-28T09:18:56;94253.50;;;11.86;64.58
10518;BME280;5307;42.548;22.968;2024-02-28T09:21:23;94257.16;;;11.70;64.25
10518;BME280;5307;42.548;22.968;2024-02-28T09:23:50;94249.44;;;11.56;64.10
10518;BME280;5307;42.548;22.968;2024-02-28T09:26:17;94251.47;;;11.65;64.66
10518;BME280;5307;42.548;22.968;2024-02-28T09:28:46;94249.50;;;11.65;64.35
10518;BME280;5307;42.548;22.968;2024-02-28T09:31:12;94249.28;;;11.72;64.54
10518;BME280;5307;42.548;22.968;2024-02-28T09:33:40;94252.00;;;11.72;64.78
10518;BME280;5307;42.548;22.968;2024-02-28T09:36:07;94255.38;;;11.76;64.58
10518;BME280;5307;42.548;22.968;2024-02-28T09:38:34;94253.22;;;11.71;64.33
10518;BME280;5307;42.548;22.968;2024-02-28T09:41:01;94250.16;;;11.69;64.59
10518;BME280;5307;42.548;22.968;2024-02-28T09:43:29;94246.06;;;11.86;65.02
10518;BME280;5307;42.548;22.968;2024-02-28T09:45:59;94252.19;;;11.78;65.06
10518;BME280;5307;42.548;22.968;2024-02-28T09:48:27;94250.72;;;11.99;64.97
10518;BME280;5307;42.548;22.968;2024-02-28T09:50:56;94244.06;;;12.09;64.79
10518;BME280;5307;42.548;22.968;2024-02-28T09:53:23;94246.88;;;11.96;64.74
10518;BME280;5307;42.548;22.968;2024-02-28T09:55:50;94238.22;;;11.98;64.32
10518;BME280;5307;42.548;22.968;2024-02-28T09:58:18;94243.44;;;12.36;64.39
10518;BME280;5307;42.548;22.968;2024-02-28T10:00:46;94250.25;;;12.53;63.99
10518;BME280;5307;42.548;22.968;2024-02-28T10:03:17;94234.84;;;12.87;63.44
10518;BME280;5307;42.548;22.968;2024-02-28T10:05:44;94237.09;;;13.28;62.07
10518;BME280;5307;42.548;22.968;2024-02-28T10:08:12;94225.22;;;13.41;61.45
10518;BME280;5307;42.548;22.968;2024-02-28T10:10:44;94235.13;;;13.56;60.80
10518;BME280;5307;42.548;22.968;2024-02-28T10:13:11;94234.81;;;13.73;59.77
10518;BME280;5307;42.548;22.968;2024-02-28T10:15:38;94219.59;;;13.53;59.78
10518;BME280;5307;42.548;22.968;2024-02-28T10:18:05;94225.81;;;13.45;59.42
10518;BME280;5307;42.548;22.968;2024-02-28T10:20:33;94220.81;;;13.52;59.47
10518;BME280;5307;42.548;22.968;2024-02-28T10:23:03;94224.00;;;13.69;60.13
10518;BME280;5307;42.548;22.968;2024-02-28T10:25:32;94213.00;;;13.78;59.43
10518;BME280;5307;42.548;22.968;2024-02-28T10:27:59;94211.94;;;13.85;58.85
10518;BME280;5307;42.548;22.968;2024-02-28T10:30:28;94209.78;;;13.98;58.53
10518;BME280;5307;42.548;22.968;2024-02-28T10:32:55;94205.69;;;13.84;58.53
10518;BME280;5307;42.548;22.968;2024-02-28T10:35:22;94206.41;;;14.03;58.09
10518;BME280;5307;42.548;22.968;2024-02-28T10:37:53;94202.41;;;14.22;58.12
10518;BME280;5307;42.548;22.968;2024-02-28T10:40:22;94195.69;;;14.23;57.30
10518;BME280;5307;42.548;22.968;2024-02-28T10:42:49;94195.53;;;14.18;57.17
10518;BME280;5307;42.548;22.968;2024-02-28T10:45:17;94192.78;;;14.27;57.69
10518;BME280;5307;42.548;22.968;2024-02-28T10:47:45;94186.38;;;14.21;58.05
10518;BME280;5307;42.548;22.968;2024-02-28T10:50:12;94181.22;;;14.23;57.47
10518;BME280;5307;42.548;22.968;2024-02-28T10:52:43;94182.66;;;14.42;57.86
10518;BME280;5307;42.548;22.968;2024-02-28T10:55:13;94168.91;;;14.51;57.49
10518;BME280;5307;42.548;22.968;2024-02-28T10:57:43;94177.72;;;14.65;57.72
10518;BME280;5307;42.548;22.968;2024-02-28T11:00:12;94173.28;;;14.67;57.11
10518;BME280;5307;42.548;22.968;2024-02-28T11:02:41;94166.41;;;14.63;56.88
10518;BME280;5307;42.548;22.968;2024-02-28T11:05:08;94168.81;;;14.70;56.64
10518;BME280;5307;42.548;22.968;2024-02-28T11:07:35;94164.19;;;14.76;55.76
10518;BME280;5307;42.548;22.968;2024-02-28T11:10:05;94159.31;;;14.38;56.64
10518;BME280;5307;42.548;22.968;2024-02-28T11:12:33;94159.44;;;14.52;56.67
10518;BME280;5307;42.548;22.968;2024-02-28T11:15:03;94153.41;;;14.63;56.97
10518;BME280;5307;42.548;22.968;2024-02-28T11:17:32;94161.03;;;14.68;56.70
10518;BME280;5307;42.548;22.968;2024-02-28T11:19:59;94158.78;;;14.58;56.94
10518;BME280;5307;42.548;22.968;2024-02-28T11:22:27;94150.44;;;14.43;57.05
10518;BME280;5307;42.548;22.968;2024-02-28T11:24:55;94149.31;;;14.59;56.71
10518;BME280;5307;42.548;22.968;2024-02-28T11:27:22;94144.63;;;14.83;56.73
10518;BME280;5307;42.548;22.968;2024-02-28T11:29:50;94142.63;;;14.83;57.10
10518;BME280;5307;42.548;22.968;2024-02-28T11:32:17;94135.03;;;14.78;56.18
10518;BME280;5307;42.548;22.968;2024-02-28T11:34:43;94143.69;;;14.86;57.02
10518;BME280;5307;42.548;22.968;2024-02-28T11:37:11;94138.09;;;14.71;56.45
10518;BME280;5307;42.548;22.968;2024-02-28T11:39:38;94127.16;;;15.10;56.76
10518;BME280;5307;42.548;22.968;2024-02-28T11:42:09;94127.81;;;15.43;55.35
10518;BME280;5307;42.548;22.968;2024-02-28T11:44:36;94122.09;;;16.00;54.83
10518;BME280;5307;42.548;22.968;2024-02-28T11:47:04;94112.97;;;15.94;54.72
10518;BME280;5307;42.548;22.968;2024-02-28T11:49:32;94107.66;;;15.76;54.38
10518;BME280;5307;42.548;22.968;2024-02-28T11:51:59;94101.97;;;15.65;54.88
10518;BME280;5307;42.548;22.968;2024-02-28T11:54:26;94116.59;;;15.86;55.18
10518;BME280;5307;42.548;22.968;2024-02-28T11:56:53;94106.56;;;15.59;55.10
10518;BME280;5307;42.548;22.968;2024-02-28T11:59:19;94100.28;;;15.05;55.14
10518;BME280;5307;42.548;22.968;2024-02-28T12:01:46;94099.28;;;15.17;55.66
10518;BME280;5307;42.548;22.968;2024-02-28T12:04:14;94105.88;;;14.96;55.84
10518;BME280;5307;42.548;22.968;2024-02-28T12:06:41;94100.25;;;15.29;56.11
10518;BME280;5307;42.548;22.968;2024-02-28T12:09:12;94086.22;;;15.27;55.01
10518;BME280;5307;42.548;22.968;2024-02-28T12:11:39;94087.47;;;15.26;55.20
10518;BME280;5307;42.548;22.968;2024-02-28T12:14:07;94091.00;;;15.41;55.08
10518;BME280;5307;42.548;22.968;2024-02-28T12:16:36;94086.63;;;15.34;55.17
10518;BME280;5307;42.548;22.968;2024-02-28T12:19:03;94083.50;;;15.41;55.20
10518;BME280;5307;42.548;22.968;2024-02-28T12:21:33;94086.72;;;15.55;54.91
10518;BME280;5307;42.548;22.968;2024-02-28T12:24:00;94083.41;;;15.51;55.01
10518;BME280;5307;42.548;22.968;2024-02-28T12:26:27;94082.97;;;15.82;54.33
10518;BME280;5307;42.548;22.968;2024-02-28T12:28:53;94075.19;;;15.80;54.24
10518;BME280;5307;42.548;22.968;2024-02-28T12:31:20;94079.72;;;15.98;53.60
10518;BME280;5307;42.548;22.968;2024-02-28T12:33:47;94073.81;;;16.20;53.49
10518;BME280;5307;42.548;22.968;2024-02-28T12:36:14;94079.94;;;15.94;52.69
10518;BME280;5307;42.548;22.968;2024-02-28T12:38:42;94073.16;;;16.10;52.53
10518;BME280;5307;42.548;22.968;2024-02-28T12:41:08;94070.81;;;15.88;52.14
10518;BME280;5307;42.548;22.968;2024-02-28T12:43:35;94067.84;;;16.07;51.99
10518;BME280;5307;42.548;22.968;2024-02-28T12:46:02;94067.97;;;15.83;51.66
10518;BME280;5307;42.548;22.968;2024-02-28T12:48:29;94073.28;;;15.71;51.77
10518;BME280;5307;42.548;22.968;2024-02-28T12:50:56;94065.28;;;15.59;52.37
10518;BME280;5307;42.548;22.968;2024-02-28T12:53:23;94064.94;;;15.66;52.42
10518;BME280;5307;42.548;22.968;2024-02-28T12:55:51;94070.78;;;15.44;51.73
10518;BME280;5307;42.548;22.968;2024-02-28T12:58:18;94076.19;;;15.38;52.04
10518;BME280;5307;42.548;22.968;2024-02-28T13:00:45;94074.28;;;15.30;52.25
10518;BME280;5307;42.548;22.968;2024-02-28T13:03:11;94070.16;;;15.64;52.39
10518;BME280;5307;42.548;22.968;2024-02-28T13:05:38;94075.91;;;15.51;52.22
10518;BME280;5307;42.548;22.968;2024-02-28T13:08:05;94084.50;;;15.68;52.32
10518;BME280;5307;42.548;22.968;2024-02-28T13:10:32;94078.94;;;15.38;52.41
10518;BME280;5307;42.548;22.968;2024-02-28T13:13:03;94077.31;;;15.47;52.18
10518;BME280;5307;42.548;22.968;2024-02-28T13:15:30;94069.69;;;15.65;52.19
10518;BME280;5307;42.548;22.968;2024-02-28T13:17:56;94073.72;;;15.55;52.59